sensor_id;sensor_type;location;lat;lon;timestamp;P1;durP1;ratioP1;P2;durP2;ratioP2
71202;SDS011;58929;47.490;19.090;2023-03-24T00:00:23;21.40;;;13.43;;
71202;SDS011;58929;47.490;19.090;2023-03-24T00:02:51;21.38;;;14.07;;
71202;SDS011;58929;47.490;19.090;2023-03-24T00:05:20;24.50;;;13.95;;
71202;SDS011;58929;47.490;19.090;2023-03-24T00:07:49;26.05;;;13.45;;
71202;SDS011;58929;47.490;19.090;2023-03-24T00:10:20;22.55;;;13.85;;
71202;SDS011;58929;47.490;19.090;2023-03-24T00:12:49;26.05;;;13.43;;
71202;SDS011;58929;47.490;19.090;2023-03-24T00:15:18;23.25;;;13.35;;
71202;SDS011;58929;47.490;19.090;2023-03-24T00:17:48;20.65;;;13.30;;
71202;SDS011;58929;47.490;19.090;2023-03-24T00:20:18;24.27;;;13.55;;
71202;SDS011;58929;47.490;19.090;2023-03-24T00:22:49;21.95;;;13.27;;
71202;SDS011;58929;47.490;19.090;2023-03-24T00:25:25;22.27;;;13.00;;
71202;SDS011;58929;47.490;19.090;2023-03-24T00:27:54;23.10;;;14.55;;
71202;SDS011;58929;47.490;19.090;2023-03-24T00:30:23;23.10;;;15.10;;
71202;SDS011;58929;47.490;19.090;2023-03-24T00:32:53;30.90;;;18.10;;
71202;SDS011;58929;47.490;19.090;2023-03-24T00:35:28;26.27;;;16.63;;
71202;SDS011;58929;47.490;19.090;2023-03-24T00:37:56;27.25;;;17.10;;
71202;SDS011;58929;47.490;19.090;2023-03-24T00:40:24;26.92;;;18.10;;
71202;SDS011;58929;47.490;19.090;2023-03-24T00:42:53;30.63;;;18.60;;
71202;SDS011;58929;47.490;19.090;2023-03-24T00:45:22;28.13;;;17.35;;
71202;SDS011;58929;47.490;19.090;2023-03-24T00:47:50;24.13;;;17.00;;
71202;SDS011;58929;47.490;19.090;2023-03-24T00:50:22;27.33;;;17.02;;
71202;SDS011;58929;47.490;19.090;2023-03-24T00:52:54;23.00;;;16.23;;
71202;SDS011;58929;47.490;19.090;2023-03-24T00:55:24;29.10;;;16.15;;
71202;SDS011;58929;47.490;19.090;2023-03-24T00:57:54;23.85;;;16.17;;
71202;SDS011;58929;47.490;19.090;2023-03-24T01:00:23;27.40;;;17.60;;
71202;SDS011;58929;47.490;19.090;2023-03-24T01:02:52;26.00;;;16.58;;
71202;SDS011;58929;47.490;19.090;2023-03-24T01:05:23;25.27;;;16.65;;
71202;SDS011;58929;47.490;19.090;2023-03-24T01:07:51;23.63;;;15.02;;
71202;SDS011;58929;47.490;19.090;2023-03-24T01:10:20;23.50;;;15.43;;
71202;SDS011;58929;47.490;19.090;2023-03-24T01:12:52;24.65;;;15.13;;
71202;SDS011;58929;47.490;19.090;2023-03-24T01:15:22;25.15;;;15.55;;
71202;SDS011;58929;47.490;19.090;2023-03-24T01:17:52;22.90;;;14.52;;
71202;SDS011;58929;47.490;19.090;2023-03-24T01:20:22;24.23;;;15.15;;
71202;SDS011;58929;47.490;19.090;2023-03-24T01:22:51;22.70;;;15.23;;
71202;SDS011;58929;47.490;19.090;2023-03-24T01:25:19;19.40;;;14.02;;
71202;SDS011;58929;47.490;19.090;2023-03-24T01:27:49;18.52;;;14.30;;
71202;SDS011;58929;47.490;19.090;2023-03-24T01:30:18;23.80;;;15.38;;
71202;SDS011;58929;47.490;19.090;2023-03-24T01:32:46;22.67;;;13.77;;
71202;SDS011;58929;47.490;19.090;2023-03-24T01:35:14;18.95;;;13.93;;
71202;SDS011;58929;47.490;19.090;2023-03-24T01:37:44;22.00;;;14.43;;
71202;SDS011;58929;47.490;19.090;2023-03-24T01:40:15;20.92;;;13.77;;
71202;SDS011;58929;47.490;19.090;2023-03-24T01:42:43;23.65;;;15.85;;
71202;SDS011;58929;47.490;19.090;2023-03-24T01:47:58;18.80;;;14.45;;
71202;SDS011;58929;47.490;19.090;2023-03-24T01:50:27;22.77;;;15.02;;
71202;SDS011;58929;47.490;19.090;2023-03-24T01:52:56;20.83;;;15.05;;
71202;SDS011;58929;47.490;19.090;2023-03-24T01:55:25;23.90;;;15.18;;
71202;SDS011;58929;47.490;19.090;2023-03-24T01:57:55;21.85;;;15.02;;
71202;SDS011;58929;47.490;19.090;2023-03-24T02:00:28;18.75;;;14.68;;
71202;SDS011;58929;47.490;19.090;2023-03-24T02:03:28;22.48;;;14.80;;
71202;SDS011;58929;47.490;19.090;2023-03-24T02:06:00;20.30;;;15.05;;
71202;SDS011;58929;47.490;19.090;2023-03-24T02:08:32;18.50;;;14.65;;
71202;SDS011;58929;47.490;19.090;2023-03-24T02:11:01;19.65;;;14.73;;
71202;SDS011;58929;47.490;19.090;2023-03-24T02:13:38;21.43;;;15.73;;
71202;SDS011;58929;47.490;19.090;2023-03-24T02:16:11;22.33;;;15.07;;
71202;SDS011;58929;47.490;19.090;2023-03-24T02:18:41;22.08;;;15.25;;
71202;SDS011;58929;47.490;19.090;2023-03-24T02:21:24;22.50;;;15.70;;
71202;SDS011;58929;47.490;19.090;2023-03-24T02:26:46;22.13;;;14.60;;
71202;SDS011;58929;47.490;19.090;2023-03-24T02:34:46;24.65;;;15.70;;
71202;SDS011;58929;47.490;19.090;2023-03-24T02:40:23;23.64;;;15.08;;
71202;SDS011;58929;47.490;19.090;2023-03-24T02:45:23;20.08;;;15.68;;
71202;SDS011;58929;47.490;19.090;2023-03-24T02:47:57;31.98;;;16.40;;
71202;SDS011;58929;47.490;19.090;2023-03-24T02:50:27;22.33;;;14.88;;
71202;SDS011;58929;47.490;19.090;2023-03-24T02:52:58;23.25;;;15.95;;
71202;SDS011;58929;47.490;19.090;2023-03-24T02:55:31;22.77;;;14.75;;
71202;SDS011;58929;47.490;19.090;2023-03-24T02:58:01;24.27;;;16.98;;
71202;SDS011;58929;47.490;19.090;2023-03-24T03:00:43;23.17;;;16.00;;
71202;SDS011;58929;47.490;19.090;2023-03-24T03:03:35;26.85;;;17.08;;
71202;SDS011;58929;47.490;19.090;2023-03-24T03:06:05;26.35;;;17.27;;
71202;SDS011;58929;47.490;19.090;2023-03-24T03:08:34;26.63;;;16.83;;
71202;SDS011;58929;47.490;19.090;2023-03-24T03:11:05;24.65;;;17.42;;
71202;SDS011;58929;47.490;19.090;2023-03-24T03:13:35;22.35;;;16.42;;
71202;SDS011;58929;47.490;19.090;2023-03-24T03:16:05;24.92;;;16.10;;
71202;SDS011;58929;47.490;19.090;2023-03-24T03:18:35;21.80;;;16.17;;
71202;SDS011;58929;47.490;19.090;2023-03-24T03:21:07;26.02;;;16.13;;
71202;SDS011;58929;47.490;19.090;2023-03-24T03:23:37;24.35;;;17.38;;
71202;SDS011;58929;47.490;19.090;2023-03-24T03:26:09;27.10;;;16.80;;
71202;SDS011;58929;47.490;19.090;2023-03-24T03:28:43;23.20;;;15.55;;
71202;SDS011;58929;47.490;19.090;2023-03-24T03:31:16;29.33;;;17.30;;
71202;SDS011;58929;47.490;19.090;2023-03-24T03:33:46;25.58;;;16.63;;
71202;SDS011;58929;47.490;19.090;2023-03-24T03:36:17;26.60;;;16.83;;
71202;SDS011;58929;47.490;19.090;2023-03-24T03:38:51;25.85;;;16.48;;
71202;SDS011;58929;47.490;19.090;2023-03-24T03:41:22;21.38;;;16.25;;
71202;SDS011;58929;47.490;19.090;2023-03-24T03:43:50;25.05;;;16.13;;
71202;SDS011;58929;47.490;19.090;2023-03-24T03:46:19;26.02;;;16.45;;
71202;SDS011;58929;47.490;19.090;2023-03-24T03:48:47;24.38;;;17.10;;
71202;SDS011;58929;47.490;19.090;2023-03-24T03:51:17;21.98;;;16.45;;
71202;SDS011;58929;47.490;19.090;2023-03-24T03:53:52;26.77;;;17.25;;
71202;SDS011;58929;47.490;19.090;2023-03-24T03:56:24;24.50;;;17.58;;
71202;SDS011;58929;47.490;19.090;2023-03-24T03:59:22;28.50;;;17.38;;
71202;SDS011;58929;47.490;19.090;2023-03-24T04:01:51;23.48;;;16.80;;
71202;SDS011;58929;47.490;19.090;2023-03-24T04:04:34;24.98;;;17.92;;
71202;SDS011;58929;47.490;19.090;2023-03-24T04:07:21;23.10;;;16.10;;
71202;SDS011;58929;47.490;19.090;2023-03-24T04:10:10;26.92;;;17.05;;
71202;SDS011;58929;47.490;19.090;2023-03-24T04:15:52;25.25;;;17.77;;
71202;SDS011;58929;47.490;19.090;2023-03-24T04:18:57;24.05;;;16.67;;
71202;SDS011;58929;47.490;19.090;2023-03-24T04:21:37;29.45;;;17.30;;
71202;SDS011;58929;47.490;19.090;2023-03-24T04:24:13;28.67;;;17.00;;
71202;SDS011;58929;47.490;19.090;2023-03-24T04:26:47;24.25;;;17.95;;
71202;SDS011;58929;47.490;19.090;2023-03-24T04:29:23;27.10;;;18.80;;
71202;SDS011;58929;47.490;19.090;2023-03-24T04:31:58;25.45;;;16.52;;
71202;SDS011;58929;47.490;19.090;2023-03-24T04:34:30;29.52;;;18.38;;
71202;SDS011;58929;47.490;19.090;2023-03-24T04:37:13;22.45;;;16.45;;
71202;SDS011;58929;47.490;19.090;2023-03-24T04:39:53;32.70;;;18.00;;
71202;SDS011;58929;47.490;19.090;2023-03-24T04:42:26;35.17;;;19.17;;
71202;SDS011;58929;47.490;19.090;2023-03-24T04:44:57;28.35;;;18.35;;
71202;SDS011;58929;47.490;19.090;2023-03-24T04:47:55;28.55;;;18.77;;
71202;SDS011;58929;47.490;19.090;2023-03-24T04:50:48;30.50;;;18.70;;
71202;SDS011;58929;47.490;19.090;2023-03-24T04:53:18;35.85;;;20.05;;
71202;SDS011;58929;47.490;19.090;2023-03-24T04:55:51;33.90;;;20.15;;
71202;SDS011;58929;47.490;19.090;2023-03-24T04:58:37;35.03;;;18.73;;
71202;SDS011;58929;47.490;19.090;2023-03-24T05:01:05;27.23;;;18.13;;
71202;SDS011;58929;47.490;19.090;2023-03-24T05:03:38;35.78;;;19.27;;
71202;SDS011;58929;47.490;19.090;2023-03-24T05:06:08;35.67;;;19.83;;
71202;SDS011;58929;47.490;19.090;2023-03-24T05:08:36;28.98;;;18.63;;
71202;SDS011;58929;47.490;19.090;2023-03-24T05:11:04;27.20;;;16.55;;
71202;SDS011;58929;47.490;19.090;2023-03-24T05:13:33;31.88;;;18.05;;
71202;SDS011;58929;47.490;19.090;2023-03-24T05:16:02;34.20;;;18.02;;
71202;SDS011;58929;47.490;19.090;2023-03-24T05:18:40;29.95;;;18.88;;
71202;SDS011;58929;47.490;19.090;2023-03-24T05:21:08;33.63;;;17.80;;
71202;SDS011;58929;47.490;19.090;2023-03-24T05:23:36;31.90;;;19.83;;
71202;SDS011;58929;47.490;19.090;2023-03-24T05:26:04;34.83;;;21.02;;
71202;SDS011;58929;47.490;19.090;2023-03-24T05:28:43;30.92;;;19.42;;
71202;SDS011;58929;47.490;19.090;2023-03-24T05:31:11;39.65;;;20.08;;
71202;SDS011;58929;47.490;19.090;2023-03-24T05:33:44;31.83;;;18.73;;
71202;SDS011;58929;47.490;19.090;2023-03-24T05:36:15;30.70;;;19.02;;
71202;SDS011;58929;47.490;19.090;2023-03-24T05:38:51;31.35;;;20.05;;
71202;SDS011;58929;47.490;19.090;2023-03-24T05:41:21;33.05;;;18.70;;
71202;SDS011;58929;47.490;19.090;2023-03-24T05:43:49;28.77;;;19.20;;
71202;SDS011;58929;47.490;19.090;2023-03-24T05:46:18;34.30;;;19.98;;
71202;SDS011;58929;47.490;19.090;2023-03-24T05:48:49;31.38;;;19.55;;
71202;SDS011;58929;47.490;19.090;2023-03-24T05:51:18;29.65;;;18.67;;
71202;SDS011;58929;47.490;19.090;2023-03-24T05:53:55;27.45;;;19.27;;
71202;SDS011;58929;47.490;19.090;2023-03-24T05:56:33;33.22;;;19.70;;
71202;SDS011;58929;47.490;19.090;2023-03-24T05:59:10;27.38;;;18.75;;
71202;SDS011;58929;47.490;19.090;2023-03-24T06:02:03;28.02;;;17.83;;
71202;SDS011;58929;47.490;19.090;2023-03-24T06:05:11;28.25;;;19.05;;
71202;SDS011;58929;47.490;19.090;2023-03-24T06:07:39;35.30;;;20.98;;
71202;SDS011;58929;47.490;19.090;2023-03-24T06:10:08;27.70;;;17.75;;
71202;SDS011;58929;47.490;19.090;2023-03-24T06:12:44;35.47;;;26.25;;
71202;SDS011;58929;47.490;19.090;2023-03-24T06:15:12;32.05;;;21.45;;
71202;SDS011;58929;47.490;19.090;2023-03-24T06:17:44;31.73;;;20.67;;
71202;SDS011;58929;47.490;19.090;2023-03-24T06:20:24;26.33;;;18.25;;
71202;SDS011;58929;47.490;19.090;2023-03-24T06:23:08;25.17;;;18.35;;
71202;SDS011;58929;47.490;19.090;2023-03-24T06:25:52;26.50;;;19.63;;
71202;SDS011;58929;47.490;19.090;2023-03-24T06:28:22;28.60;;;18.90;;
71202;SDS011;58929;47.490;19.090;2023-03-24T06:30:53;31.25;;;21.55;;
71202;SDS011;58929;47.490;19.090;2023-03-24T06:33:29;31.98;;;20.63;;
71202;SDS011;58929;47.490;19.090;2023-03-24T06:35:59;30.55;;;20.33;;
71202;SDS011;58929;47.490;19.090;2023-03-24T06:38:29;28.30;;;18.52;;
71202;SDS011;58929;47.490;19.090;2023-03-24T06:40:58;26.73;;;18.60;;
71202;SDS011;58929;47.490;19.090;2023-03-24T06:43:27;25.02;;;19.05;;
71202;SDS011;58929;47.490;19.090;2023-03-24T06:45:55;30.15;;;19.75;;
71202;SDS011;58929;47.490;19.090;2023-03-24T06:48:24;25.80;;;20.25;;
71202;SDS011;58929;47.490;19.090;2023-03-24T06:51:00;35.85;;;21.40;;
71202;SDS011;58929;47.490;19.090;2023-03-24T06:53:28;33.42;;;21.08;;
71202;SDS011;58929;47.490;19.090;2023-03-24T06:55:56;34.53;;;19.27;;
71202;SDS011;58929;47.490;19.090;2023-03-24T06:58:26;33.72;;;21.77;;
71202;SDS011;58929;47.490;19.090;2023-03-24T07:01:05;35.47;;;22.77;;
71202;SDS011;58929;47.490;19.090;2023-03-24T07:03:35;34.47;;;21.23;;
71202;SDS011;58929;47.490;19.090;2023-03-24T07:06:31;32.92;;;21.77;;
71202;SDS011;58929;47.490;19.090;2023-03-24T07:09:16;34.55;;;19.75;;
71202;SDS011;58929;47.490;19.090;2023-03-24T07:11:44;28.73;;;20.42;;
71202;SDS011;58929;47.490;19.090;2023-03-24T07:14:13;37.75;;;19.75;;
71202;SDS011;58929;47.490;19.090;2023-03-24T07:16:42;27.73;;;18.83;;
71202;SDS011;58929;47.490;19.090;2023-03-24T07:19:30;29.98;;;19.77;;
71202;SDS011;58929;47.490;19.090;2023-03-24T07:22:25;35.55;;;22.58;;
71202;SDS011;58929;47.490;19.090;2023-03-24T07:25:29;35.78;;;21.08;;
71202;SDS011;58929;47.490;19.090;2023-03-24T07:28:06;31.65;;;18.98;;
71202;SDS011;58929;47.490;19.090;2023-03-24T07:30:37;35.42;;;20.45;;
71202;SDS011;58929;47.490;19.090;2023-03-24T07:33:18;31.15;;;19.90;;
71202;SDS011;58929;47.490;19.090;2023-03-24T07:35:46;31.13;;;19.10;;
71202;SDS011;58929;47.490;19.090;2023-03-24T07:38:42;31.52;;;20.60;;
71202;SDS011;58929;47.490;19.090;2023-03-24T07:43:50;31.33;;;20.52;;
71202;SDS011;58929;47.490;19.090;2023-03-24T07:46:22;32.33;;;18.95;;
71202;SDS011;58929;47.490;19.090;2023-03-24T07:48:50;26.17;;;17.85;;
71202;SDS011;58929;47.490;19.090;2023-03-24T07:51:18;23.15;;;17.55;;
71202;SDS011;58929;47.490;19.090;2023-03-24T07:54:09;37.53;;;19.98;;
71202;SDS011;58929;47.490;19.090;2023-03-24T07:56:42;23.13;;;17.48;;
71202;SDS011;58929;47.490;19.090;2023-03-24T07:59:10;24.63;;;19.35;;
71202;SDS011;58929;47.490;19.090;2023-03-24T08:01:47;23.55;;;17.80;;
71202;SDS011;58929;47.490;19.090;2023-03-24T08:04:44;29.33;;;21.23;;
71202;SDS011;58929;47.490;19.090;2023-03-24T08:07:31;25.55;;;17.70;;
71202;SDS011;58929;47.490;19.090;2023-03-24T08:10:01;23.60;;;16.38;;
71202;SDS011;58929;47.490;19.090;2023-03-24T08:12:29;29.33;;;18.75;;
71202;SDS011;58929;47.490;19.090;2023-03-24T08:14:57;26.58;;;18.38;;
71202;SDS011;58929;47.490;19.090;2023-03-24T08:17:25;28.83;;;19.30;;
71202;SDS011;58929;47.490;19.090;2023-03-24T08:19:55;26.67;;;17.70;;
71202;SDS011;58929;47.490;19.090;2023-03-24T08:22:28;24.70;;;18.33;;
71202;SDS011;58929;47.490;19.090;2023-03-24T08:24:57;33.90;;;19.33;;
71202;SDS011;58929;47.490;19.090;2023-03-24T08:27:29;25.65;;;18.17;;
71202;SDS011;58929;47.490;19.090;2023-03-24T08:29:57;26.83;;;16.30;;
71202;SDS011;58929;47.490;19.090;2023-03-24T08:32:25;30.38;;;17.65;;
71202;SDS011;58929;47.490;19.090;2023-03-24T08:34:53;22.83;;;16.33;;
71202;SDS011;58929;47.490;19.090;2023-03-24T08:37:20;23.58;;;15.93;;
71202;SDS011;58929;47.490;19.090;2023-03-24T08:39:48;21.20;;;15.52;;
71202;SDS011;58929;47.490;19.090;2023-03-24T08:42:17;20.48;;;13.20;;
71202;SDS011;58929;47.490;19.090;2023-03-24T08:44:46;25.63;;;14.43;;
71202;SDS011;58929;47.490;19.090;2023-03-24T08:47:14;22.65;;;13.30;;
71202;SDS011;58929;47.490;19.090;2023-03-24T08:49:42;20.08;;;13.20;;
71202;SDS011;58929;47.490;19.090;2023-03-24T08:52:10;17.20;;;11.45;;
71202;SDS011;58929;47.490;19.090;2023-03-24T08:54:38;18.73;;;12.55;;
71202;SDS011;58929;47.490;19.090;2023-03-24T08:57:07;14.90;;;11.65;;
71202;SDS011;58929;47.490;19.090;2023-03-24T08:59:36;16.52;;;11.23;;
71202;SDS011;58929;47.490;19.090;2023-03-24T09:02:05;22.40;;;11.95;;
71202;SDS011;58929;47.490;19.090;2023-03-24T09:04:35;22.25;;;11.90;;
71202;SDS011;58929;47.490;19.090;2023-03-24T09:07:03;19.27;;;12.10;;
71202;SDS011;58929;47.490;19.090;2023-03-24T09:09:32;14.77;;;11.18;;
71202;SDS011;58929;47.490;19.090;2023-03-24T09:12:03;17.48;;;10.73;;
71202;SDS011;58929;47.490;19.090;2023-03-24T09:14:31;13.32;;;10.23;;
71202;SDS011;58929;47.490;19.090;2023-03-24T09:16:59;18.02;;;12.00;;
71202;SDS011;58929;47.490;19.090;2023-03-24T09:19:29;19.10;;;10.43;;
71202;SDS011;58929;47.490;19.090;2023-03-24T09:21:57;16.48;;;9.50;;
71202;SDS011;58929;47.490;19.090;2023-03-24T09:24:26;12.60;;;9.77;;
71202;SDS011;58929;47.490;19.090;2023-03-24T09:26:54;19.00;;;9.38;;
71202;SDS011;58929;47.490;19.090;2023-03-24T09:29:22;13.55;;;9.43;;
71202;SDS011;58929;47.490;19.090;2023-03-24T09:31:50;24.23;;;10.80;;
71202;SDS011;58929;47.490;19.090;2023-03-24T09:34:19;13.80;;;9.35;;
71202;SDS011;58929;47.490;19.090;2023-03-24T09:36:49;21.90;;;9.88;;
71202;SDS011;58929;47.490;19.090;2023-03-24T09:39:17;25.00;;;10.90;;
71202;SDS011;58929;47.490;19.090;2023-03-24T09:41:46;15.27;;;10.20;;
71202;SDS011;58929;47.490;19.090;2023-03-24T09:44:20;16.90;;;11.45;;
71202;SDS011;58929;47.490;19.090;2023-03-24T09:46:50;17.88;;;11.43;;
71202;SDS011;58929;47.490;19.090;2023-03-24T09:49:21;26.35;;;12.15;;
71202;SDS011;58929;47.490;19.090;2023-03-24T09:51:52;24.00;;;12.55;;
71202;SDS011;58929;47.490;19.090;2023-03-24T09:54:21;24.60;;;12.88;;
71202;SDS011;58929;47.490;19.090;2023-03-24T09:56:53;22.73;;;12.57;;
71202;SDS011;58929;47.490;19.090;2023-03-24T09:59:24;18.38;;;11.70;;
71202;SDS011;58929;47.490;19.090;2023-03-24T10:01:56;23.45;;;12.05;;
71202;SDS011;58929;47.490;19.090;2023-03-24T10:04:25;27.02;;;14.05;;
71202;SDS011;58929;47.490;19.090;2023-03-24T10:06:56;20.70;;;12.48;;
71202;SDS011;58929;47.490;19.090;2023-03-24T10:09:25;25.05;;;12.57;;
71202;SDS011;58929;47.490;19.090;2023-03-24T10:11:58;20.42;;;12.45;;
71202;SDS011;58929;47.490;19.090;2023-03-24T10:14:34;25.65;;;12.50;;
71202;SDS011;58929;47.490;19.090;2023-03-24T10:17:08;24.02;;;12.00;;
71202;SDS011;58929;47.490;19.090;2023-03-24T10:19:39;18.13;;;10.77;;
71202;SDS011;58929;47.490;19.090;2023-03-24T10:22:16;26.92;;;12.07;;
71202;SDS011;58929;47.490;19.090;2023-03-24T10:24:49;23.25;;;11.38;;
71202;SDS011;58929;47.490;19.090;2023-03-24T10:27:24;19.80;;;11.35;;
71202;SDS011;58929;47.490;19.090;2023-03-24T10:29:56;24.08;;;9.52;;
71202;SDS011;58929;47.490;19.090;2023-03-24T10:32:28;17.70;;;9.35;;
71202;SDS011;58929;47.490;19.090;2023-03-24T10:34:57;27.75;;;10.55;;
71202;SDS011;58929;47.490;19.090;2023-03-24T10:37:34;22.90;;;12.00;;
71202;SDS011;58929;47.490;19.090;2023-03-24T10:40:06;24.90;;;10.52;;
71202;SDS011;58929;47.490;19.090;2023-03-24T10:42:39;14.85;;;8.55;;
71202;SDS011;58929;47.490;19.090;2023-03-24T10:45:10;13.75;;;8.48;;
71202;SDS011;58929;47.490;19.090;2023-03-24T10:47:40;17.83;;;7.47;;
71202;SDS011;58929;47.490;19.090;2023-03-24T10:50:09;15.57;;;7.78;;
71202;SDS011;58929;47.490;19.090;2023-03-24T10:52:43;22.73;;;8.02;;
71202;SDS011;58929;47.490;19.090;2023-03-24T10:55:13;26.05;;;7.22;;
71202;SDS011;58929;47.490;19.090;2023-03-24T10:57:42;26.88;;;7.43;;
71202;SDS011;58929;47.490;19.090;2023-03-24T11:00:15;22.73;;;8.35;;
71202;SDS011;58929;47.490;19.090;2023-03-24T11:02:48;18.60;;;8.07;;
71202;SDS011;58929;47.490;19.090;2023-03-24T11:05:20;21.38;;;8.25;;
71202;SDS011;58929;47.490;19.090;2023-03-24T11:07:51;17.73;;;6.53;;
71202;SDS011;58929;47.490;19.090;2023-03-24T11:10:22;16.67;;;7.00;;
71202;SDS011;58929;47.490;19.090;2023-03-24T11:13:00;15.18;;;6.93;;
71202;SDS011;58929;47.490;19.090;2023-03-24T11:15:31;19.50;;;6.63;;
71202;SDS011;58929;47.490;19.090;2023-03-24T11:17:59;15.93;;;6.80;;
71202;SDS011;58929;47.490;19.090;2023-03-24T11:20:29;14.45;;;6.00;;
71202;SDS011;58929;47.490;19.090;2023-03-24T11:23:00;15.25;;;6.50;;
71202;SDS011;58929;47.490;19.090;2023-03-24T11:25:29;17.40;;;6.70;;
71202;SDS011;58929;47.490;19.090;2023-03-24T11:28:00;16.67;;;6.70;;
71202;SDS011;58929;47.490;19.090;2023-03-24T11:30:31;14.82;;;6.68;;
71202;SDS011;58929;47.490;19.090;2023-03-24T11:33:00;29.55;;;6.70;;
71202;SDS011;58929;47.490;19.090;2023-03-24T11:35:29;16.70;;;6.53;;
71202;SDS011;58929;47.490;19.090;2023-03-24T11:38:12;15.45;;;6.05;;
71202;SDS011;58929;47.490;19.090;2023-03-24T11:40:51;25.55;;;6.90;;
71202;SDS011;58929;47.490;19.090;2023-03-24T11:43:19;18.17;;;6.77;;
71202;SDS011;58929;47.490;19.090;2023-03-24T11:45:50;16.30;;;5.63;;
71202;SDS011;58929;47.490;19.090;2023-03-24T11:48:22;16.02;;;5.25;;
71202;SDS011;58929;47.490;19.090;2023-03-24T11:50:51;13.45;;;5.60;;
71202;SDS011;58929;47.490;19.090;2023-03-24T11:53:22;13.85;;;5.25;;
71202;SDS011;58929;47.490;19.090;2023-03-24T11:55:51;14.40;;;5.15;;
71202;SDS011;58929;47.490;19.090;2023-03-24T11:58:25;13.18;;;4.80;;
71202;SDS011;58929;47.490;19.090;2023-03-24T12:00:58;11.98;;;4.25;;
71202;SDS011;58929;47.490;19.090;2023-03-24T12:03:47;13.48;;;3.95;;
71202;SDS011;58929;47.490;19.090;2023-03-24T12:06:21;12.32;;;4.03;;
71202;SDS011;58929;47.490;19.090;2023-03-24T12:09:01;16.45;;;3.38;;
71202;SDS011;58929;47.490;19.090;2023-03-24T12:11:33;14.10;;;3.40;;
71202;SDS011;58929;47.490;19.090;2023-03-24T12:14:05;9.13;;;3.50;;
71202;SDS011;58929;47.490;19.090;2023-03-24T12:16:38;11.90;;;3.28;;
71202;SDS011;58929;47.490;19.090;2023-03-24T12:21:58;5.93;;;2.80;;
71202;SDS011;58929;47.490;19.090;2023-03-24T12:24:34;9.80;;;3.17;;
71202;SDS011;58929;47.490;19.090;2023-03-24T12:27:06;10.98;;;2.85;;
71202;SDS011;58929;47.490;19.090;2023-03-24T12:29:42;9.20;;;2.22;;
71202;SDS011;58929;47.490;19.090;2023-03-24T12:32:15;21.38;;;3.10;;
71202;SDS011;58929;47.490;19.090;2023-03-24T12:34:50;11.70;;;2.47;;
71202;SDS011;58929;47.490;19.090;2023-03-24T12:37:24;9.40;;;2.67;;
71202;SDS011;58929;47.490;19.090;2023-03-24T12:39:57;7.75;;;2.72;;
71202;SDS011;58929;47.490;19.090;2023-03-24T12:42:29;12.10;;;2.40;;
71202;SDS011;58929;47.490;19.090;2023-03-24T12:47:46;11.02;;;2.60;;
71202;SDS011;58929;47.490;19.090;2023-03-24T12:50:20;13.23;;;2.50;;
71202;SDS011;58929;47.490;19.090;2023-03-24T12:53:08;16.08;;;2.40;;
71202;SDS011;58929;47.490;19.090;2023-03-24T12:55:41;5.85;;;2.92;;
71202;SDS011;58929;47.490;19.090;2023-03-24T12:58:11;3.92;;;2.35;;
71202;SDS011;58929;47.490;19.090;2023-03-24T13:00:41;8.60;;;2.30;;
71202;SDS011;58929;47.490;19.090;2023-03-24T13:03:10;9.90;;;2.88;;
71202;SDS011;58929;47.490;19.090;2023-03-24T13:05:40;8.75;;;2.53;;
71202;SDS011;58929;47.490;19.090;2023-03-24T13:08:11;9.68;;;2.88;;
71202;SDS011;58929;47.490;19.090;2023-03-24T13:10:43;8.23;;;3.22;;
71202;SDS011;58929;47.490;19.090;2023-03-24T13:13:14;15.57;;;2.40;;
71202;SDS011;58929;47.490;19.090;2023-03-24T13:15:44;12.43;;;2.70;;
71202;SDS011;58929;47.490;19.090;2023-03-24T13:18:17;15.52;;;2.63;;
71202;SDS011;58929;47.490;19.090;2023-03-24T13:20:50;6.90;;;2.60;;
71202;SDS011;58929;47.490;19.090;2023-03-24T13:23:24;10.77;;;2.38;;
71202;SDS011;58929;47.490;19.090;2023-03-24T13:25:58;7.07;;;2.40;;
71202;SDS011;58929;47.490;19.090;2023-03-24T13:28:31;7.50;;;2.45;;
71202;SDS011;58929;47.490;19.090;2023-03-24T13:31:02;13.00;;;2.25;;
71202;SDS011;58929;47.490;19.090;2023-03-24T13:33:31;13.48;;;3.03;;
71202;SDS011;58929;47.490;19.090;2023-03-24T13:36:11;10.95;;;2.83;;
71202;SDS011;58929;47.490;19.090;2023-03-24T13:38:45;9.88;;;2.67;;
71202;SDS011;58929;47.490;19.090;2023-03-24T13:41:17;6.88;;;2.58;;
71202;SDS011;58929;47.490;19.090;2023-03-24T13:43:46;11.45;;;2.88;;
71202;SDS011;58929;47.490;19.090;2023-03-24T13:46:15;12.95;;;2.50;;
71202;SDS011;58929;47.490;19.090;2023-03-24T13:48:43;13.32;;;2.90;;
71202;SDS011;58929;47.490;19.090;2023-03-24T13:51:14;14.52;;;2.40;;
71202;SDS011;58929;47.490;19.090;2023-03-24T13:53:47;26.88;;;2.97;;
71202;SDS011;58929;47.490;19.090;2023-03-24T13:56:22;8.05;;;2.92;;
71202;SDS011;58929;47.490;19.090;2023-03-24T14:10:22;18.17;;;2.83;;
71202;SDS011;58929;47.490;19.090;2023-03-24T14:12:56;11.60;;;2.70;;
71202;SDS011;58929;47.490;19.090;2023-03-24T14:15:28;10.20;;;2.70;;
71202;SDS011;58929;47.490;19.090;2023-03-24T14:18:12;10.40;;;2.60;;
71202;SDS011;58929;47.490;19.090;2023-03-24T14:20:43;6.78;;;2.50;;
71202;SDS011;58929;47.490;19.090;2023-03-24T14:23:29;8.63;;;2.53;;
71202;SDS011;58929;47.490;19.090;2023-03-24T14:25:59;5.57;;;2.17;;
71202;SDS011;58929;47.490;19.090;2023-03-24T14:28:29;5.47;;;2.60;;
71202;SDS011;58929;47.490;19.090;2023-03-24T14:30:59;9.05;;;3.20;;
71202;SDS011;58929;47.490;19.090;2023-03-24T14:33:28;10.30;;;3.00;;
71202;SDS011;58929;47.490;19.090;2023-03-24T14:35:59;9.50;;;2.70;;
71202;SDS011;58929;47.490;19.090;2023-03-24T14:38:33;3.03;;;2.17;;
71202;SDS011;58929;47.490;19.090;2023-03-24T14:41:04;7.13;;;2.40;;
71202;SDS011;58929;47.490;19.090;2023-03-24T14:49:16;7.03;;;2.88;;
71202;SDS011;58929;47.490;19.090;2023-03-24T14:51:47;7.13;;;2.20;;
71202;SDS011;58929;47.490;19.090;2023-03-24T14:54:18;2.92;;;2.45;;
71202;SDS011;58929;47.490;19.090;2023-03-24T14:56:50;6.40;;;2.40;;
71202;SDS011;58929;47.490;19.090;2023-03-24T14:59:28;11.13;;;3.03;;
71202;SDS011;58929;47.490;19.090;2023-03-24T15:02:00;4.05;;;2.17;;
71202;SDS011;58929;47.490;19.090;2023-03-24T15:04:32;7.00;;;2.97;;
71202;SDS011;58929;47.490;19.090;2023-03-24T15:07:04;8.57;;;3.35;;
71202;SDS011;58929;47.490;19.090;2023-03-24T15:09:35;4.55;;;2.55;;
71202;SDS011;58929;47.490;19.090;2023-03-24T15:12:04;7.07;;;2.67;;
71202;SDS011;58929;47.490;19.090;2023-03-24T15:14:32;9.38;;;3.28;;
71202;SDS011;58929;47.490;19.090;2023-03-24T15:17:03;7.68;;;3.28;;
71202;SDS011;58929;47.490;19.090;2023-03-24T15:19:33;8.23;;;3.10;;
71202;SDS011;58929;47.490;19.090;2023-03-24T15:22:02;7.53;;;2.50;;
71202;SDS011;58929;47.490;19.090;2023-03-24T15:24:33;6.38;;;2.50;;
71202;SDS011;58929;47.490;19.090;2023-03-24T15:27:16;5.07;;;2.58;;
71202;SDS011;58929;47.490;19.090;2023-03-24T15:29:45;8.65;;;2.92;;